Time;durP1;ratioP1;P1;durP2;ratioP2;P2;SDS_P1;SDS_P2;PMS_P1;PMS_P2;Temp;Humidity;BMP_temperature;BMP_pressure;BME280_temperature;BME280_humidity;BME280_pressure;Samples;Min_cycle;Max_cycle;Signal;HPM_P1;HPM_P2
2021/09/01 00:00:09;;;;;;;;;;;;;;;;;;4995906;28;20381;-68
2021/09/01 00:02:36;;;;;;;;;;;;;;;;;;4988944;28;19933;-68
2021/09/01 00:05:03;;;;;;;;;;;;;;;;;;4992769;28;19926;-68
2021/09/01 00:07:30;;;;;;;;;;;;;;;;;;4991872;28;20449;-67
2021/09/01 00:09:57;;;;;;;;;;;;;;;;;;4991434;28;20278;-67
2021/09/01 00:12:27;;;;;;;;;;;;;;;;;;4989161;28;21611;-67
2021/09/01 00:14:54;;;;;;;;;;;;;;;;;;4990567;28;19925;-66
2021/09/01 00:17:21;;;;;;;;;;;;;;;;;;4990089;28;20297;-67
2021/09/01 00:19:48;;;;;;;;;;;;;;;;;;4991741;28;19948;-67
2021/09/01 00:22:15;;;;;;;;;;;;;;;;;;4990070;28;19926;-67
2021/09/01 00:24:42;;;;;;;;;;;;;;;;;;4995959;28;19930;-66
2021/09/01 00:27:09;;;;;;;;;;;;;;;;;;4993051;28;20336;-67
2021/09/01 00:29:36;;;;;;;;;;;;;;;;;;4988954;28;19981;-67
2021/09/01 00:32:03;;;;;;;;;;;;;;;;;;4999200;28;19965;-67
2021/09/01 00:34:30;;;;;;;;;;;;;;;;;;4990222;28;20106;-66
2021/09/01 00:36:57;;;;;;;;;;;;;;;;;;4993260;28;20020;-67
2021/09/01 00:39:24;;;;;;;;;;;;;;;;;;4990635;28;19976;-67
2021/09/01 01:42:16;;;;;;;;;;;;;;;;;;4994350;28;19921;-69
2021/09/01 01:44:43;;;;;;;;;;;;;;;;;;4996333;28;19969;-67
2021/09/01 01:47:10;;;;;;;;;;;;;;;;;;4991568;28;19936;-67
2021/09/01 01:49:37;;;;;;;;;;;;;;;;;;4993468;28;20362;-67
2021/09/01 01:52:04;;;;;;;;;;;;;;;;;;4993933;28;19926;-67
2021/09/01 01:54:31;;;;;;;;;;;;;;;;;;5000470;28;19977;-67
2021/09/01 01:56:58;;;;;;;;;;;;;;;;;;4999957;28;20369;-67
2021/09/01 01:59:25;;;;;;;;;;;;;;;;;;4995189;28;19932;-67
2021/09/01 02:01:52;;;;;;;;;;;;;;;;;;4992704;28;20327;-67
2021/09/01 02:04:19;;;;;;;;;;;;;;;;;;4993919;28;19929;-68
2021/09/01 02:06:46;;;;;;;;;;;;;;;;;;4987779;28;19926;-68
2021/09/01 02:09:13;;;;;;;;;;;;;;;;;;4991381;28;20317;-69
2021/09/01 02:11:40;;;;;;;;;;;;;;;;;;4993768;28;19926;-68
2021/09/01 02:14:07;;;;;;;;;;;;;;;;;;4996827;28;19925;-68
2021/09/01 02:16:34;;;;;;;;;;;;;;;;;;4986818;28;20391;-69
2021/09/01 02:19:01;;;;;;;;;;;;;;;;;;4992866;28;19930;-68
2021/09/01 02:21:28;;;;;;;;;;;;;;;;;;4988721;28;19925;-68
2021/09/01 02:23:55;;;;;;;;;;;;;;;;;;4994342;28;20290;-68
2021/09/01 02:26:22;;;;;;;;;;;;;;;;;;4993525;28;19926;-69
2021/09/01 02:28:49;;;;;;;;;;;;;;;;;;4993658;28;19935;-68
2021/09/01 02:31:16;;;;;;;;;;;;;;;;;;4989933;28;20302;-69
2021/09/01 02:33:43;;;;;;;;;;;;;;;;;;4993165;28;19930;-66
2021/09/01 02:36:10;;;;;;;;;;;;;;;;;;4997168;28;20401;-68
2021/09/01 02:38:39;;;;;;;;;;;;;;;;;;4990662;28;19926;-66
2021/09/01 02:41:06;;;;;;;;;;;;;;;;;;4993340;28;19925;-70
2021/09/01 02:43:33;;;;;;;;;;;;;;;;;;4993322;28;20028;-68
2021/09/01 02:46:00;;;;;;;;;;;;;;;;;;4989274;28;19930;-67
2021/09/01 02:48:27;;;;;;;;;;;;;;;;;;4998258;28;19926;-67
2021/09/01 02:50:54;;;;;;;;;;;;;;;;;;5001543;28;19936;-67
2021/09/01 02:53:21;;;;;;;;;;;;;;;;;;4998974;28;19933;-67
2021/09/01 02:55:48;;;;;;;;;;;;;;;;;;4995634;28;19972;-66
2021/09/01 02:58:15;;;;;;;;;;;;;;;;;;4995041;28;19981;-67
2021/09/01 03:00:42;;;;;;;;;;;;;;;;;;4995738;28;19926;-67
2021/09/01 03:03:09;;;;;;;;;;;;;;;;;;4992425;28;19930;-68
2021/09/01 03:05:36;;;;;;;;;;;;;;;;;;4986060;28;20408;-68
2021/09/01 03:08:03;;;;;;;;;;;;;;;;;;4995433;28;19936;-70
2021/09/01 03:10:30;;;;;;;;;;;;;;;;;;4993413;28;19934;-68
2021/09/01 03:12:57;;;;;;;;;;;;;;;;;;4988554;28;19926;-69
2021/09/01 03:15:24;;;;;;;;;;;;;;;;;;4991863;28;19926;-68
2021/09/01 03:17:51;;;;;;;;;;;;;;;;;;4990179;28;20195;-68
2021/09/01 03:20:18;;;;;;;;;;;;;;;;;;4997763;28;20162;-69
2021/09/01 03:22:45;;;;;;;;;;;;;;;;;;4986769;28;19926;-69
2021/09/01 03:25:12;;;;;;;;;;;;;;;;;;4990997;28;20289;-68
2021/09/01 03:27:39;;;;;;;;;;;;;;;;;;4993556;28;20028;-68
2021/09/01 03:30:06;;;;;;;;;;;;;;;;;;5000659;28;20032;-68
2021/09/01 03:32:33;;;;;;;;;;;;;;;;;;4991656;28;19936;-68
2021/09/01 03:35:00;;;;;;;;;;;;;;;;;;4991239;28;19936;-68
2021/09/01 03:37:27;;;;;;;;;;;;;;;;;;4991736;28;20377;-68
2021/09/01 03:39:54;;;;;;;;;;;;;;;;;;4991649;28;19926;-70
2021/09/01 03:42:21;;;;;;;;;;;;;;;;;;4994891;28;20408;-67
2021/09/01 03:44:47;;;;;;;;;;;;;;;;;;4992369;28;19925;-67
2021/09/01 03:47:15;;;;;;;;;;;;;;;;;;4993716;28;19934;-67
2021/09/01 03:49:42;;;;;;;;;;;;;;;;;;4992068;28;20114;-67
2021/09/01 03:52:08;;;;;;;;;;;;;;;;;;4988545;28;20309;-67
2021/09/01 03:54:35;;;;;;;;;;;;;;;;;;4991957;28;19937;-68
2021/09/01 03:57:02;;;;;;;;;;;;;;;;;;4990867;28;19932;-67
2021/09/01 03:59:29;;;;;;;;;;;;;;;;;;4988453;28;20358;-67
2021/09/01 04:01:56;;;;;;;;;;;;;;;;;;4983088;28;19969;-68
2021/09/01 04:04:24;;;;;;;;;;;;;;;;;;4990942;28;19926;-67
2021/09/01 04:06:51;;;;;;;;;;;;;;;;;;4991203;28;20302;-68
2021/09/01 04:09:21;;;;;;;;;;;;;;;;;;4983353;28;19934;-68
2021/09/01 04:11:48;;;;;;;;;;;;;;;;;;4984885;28;19992;-67
2021/09/01 04:14:15;;;;;;;;;;;;;;;;;;4989890;28;19988;-67
2021/09/01 04:16:42;;;;;;;;;;;;;;;;;;4988285;28;20309;-67
2021/09/01 04:19:09;;;;;;;;;;;;;;;;;;4989485;28;19973;-68
2021/09/01 04:21:36;;;;;;;;;;;;;;;;;;4987256;28;19926;-67
2021/09/01 04:24:03;;;;;;;;;;;;;;;;;;4985515;28;19926;-67
2021/09/01 04:26:30;;;;;;;;;;;;;;;;;;4991241;28;19929;-68
2021/09/01 04:28:57;;;;;;;;;;;;;;;;;;4991083;28;19932;-67
2021/09/01 04:31:24;;;;;;;;;;;;;;;;;;4990047;28;19926;-68
2021/09/01 04:33:51;;;;;;;;;;;;;;;;;;4987823;28;19925;-67
2021/09/01 04:36:18;;;;;;;;;;;;;;;;;;4990727;28;20512;-67
2021/09/01 04:38:45;;;;;;;;;;;;;;;;;;4990796;28;20012;-67
2021/09/01 04:41:12;;;;;;;;;;;;;;;;;;4990923;28;19932;-68
2021/09/01 04:43:39;;;;;;;;;;;;;;;;;;4988094;28;19925;-67
2021/09/01 04:46:06;;;;;;;;;;;;;;;;;;4990586;28;19925;-67
2021/09/01 04:48:33;;;;;;;;;;;;;;;;;;4989635;28;19930;-68
2021/09/01 04:51:00;;;;;;;;;;;;;;;;;;4990750;28;20301;-68
2021/09/01 04:53:27;;;;;;;;;;;;;;;;;;4989563;28;19934;-67
2021/09/01 04:55:54;;;;;;;;;;;;;;;;;;4987278;28;20053;-68
2021/09/01 04:58:21;;;;;;;;;;;;;;;;;;4990871;28;19926;-67
2021/09/01 05:00:48;;;;;;;;;;;;;;;;;;4980798;28;19932;-67
2021/09/01 05:03:15;;;;;;;;;;;;;;;;;;4990796;28;19933;-68
2021/09/01 05:05:42;;;;;;;;;;;;;;;;;;4986713;28;20378;-67
2021/09/01 05:08:08;;;;;;;;;;;;;;;;;;4989393;28;19937;-68
2021/09/01 05:10:35;;;;;;;;;;;;;;;;;;4989960;28;19941;-67
2021/09/01 05:13:02;;;;;;;;;;;;;;;;;;4989386;28;19925;-68
2021/09/01 05:15:29;;;;;;;;;;;;;;;;;;4986505;28;19929;-67
2021/09/01 05:17:56;;;;;;;;;;;;;;;;;;4989071;28;19926;-67
2021/09/01 05:20:23;;;;;;;;;;;;;;;;;;4989359;28;20366;-68
2021/09/01 05:22:50;;;;;;;;;;;;;;;;;;4989471;28;19984;-66
2021/09/01 05:25:18;;;;;;;;;;;;;;;;;;4990232;28;19926;-66
2021/09/01 05:27:45;;;;;;;;;;;;;;;;;;4989722;28;20379;-66
2021/09/01 05:30:12;;;;;;;;;;;;;;;;;;4990638;28;19964;-66
2021/09/01 05:32:39;;;;;;;;;;;;;;;;;;4988691;28;20012;-67
2021/09/01 05:35:05;;;;;;;;;;;;;;;;;;4983437;28;19926;-67
2021/09/01 05:37:33;;;;;;;;;;;;;;;;;;4995509;28;20386;-66
2021/09/01 05:40:00;;;;;;;;;;;;;;;;;;4993922;28;19946;-67
2021/09/01 05:42:27;;;;;;;;;;;;;;;;;;4990466;28;19927;-66
2021/09/01 05:44:54;;;;;;;;;;;;;;;;;;4990787;28;19926;-66
2021/09/01 05:47:21;;;;;;;;;;;;;;;;;;4988854;28;19980;-67
2021/09/01 05:49:48;;;;;;;;;;;;;;;;;;4982735;28;19933;-67
2021/09/01 05:52:15;;;;;;;;;;;;;;;;;;4994350;28;19926;-67
2021/09/01 05:54:42;;;;;;;;;;;;;;;;;;4987321;28;19926;-68
2021/09/01 05:57:09;;;;;;;;;;;;;;;;;;4988090;28;19930;-68
2021/09/01 05:59:36;;;;;;;;;;;;;;;;;;4987237;28;19926;-67
2021/09/01 06:02:03;;;;;;;;;;;;;;;;;;4987161;28;19926;-68
2021/09/01 06:04:30;;;;;;;;;;;;;;;;;;4988920;28;19972;-68
2021/09/01 06:06:57;;;;;;;;;;;;;;;;;;4987629;28;19926;-68
2021/09/01 06:09:24;;;;;;;;;;;;;;;;;;4991277;28;19948;-67
2021/09/01 06:11:51;;;;;;;;;;;;;;;;;;4992703;28;20016;-67
2021/09/01 06:14:18;;;;;;;;;;;;;;;;;;4987846;28;20310;-68
2021/09/01 06:16:45;;;;;;;;;;;;;;;;;;4988484;28;19929;-68
2021/09/01 06:19:12;;;;;;;;;;;;;;;;;;4990452;28;19932;-67
2021/09/01 06:21:39;;;;;;;;;;;;;;;;;;4993167;28;19932;-67
2021/09/01 06:24:06;;;;;;;;;;;;;;;;;;4993101;28;20378;-67
2021/09/01 06:26:33;;;;;;;;;;;;;;;;;;4994091;28;20024;-67
2021/09/01 06:29:00;;;;;;;;;;;;;;;;;;4988700;28;20144;-67
2021/09/01 06:31:32;;;;;;;;;;;;;;;;;;4991126;28;19933;-67
2021/09/01 06:33:59;;;;;;;;;;;;;;;;;;4987868;28;19980;-67
2021/09/01 06:36:26;;;;;;;;;;;;;;;;;;4991816;28;19925;-67
2021/09/01 06:38:52;;;;;;;;;;;;;;;;;;4992468;28;19933;-67
2021/09/01 06:41:19;;;;;;;;;;;;;;;;;;4990572;28;19932;-68
2021/09/01 06:43:46;;;;;;;;;;;;;;;;;;4969107;28;19933;-67
2021/09/01 06:46:13;;;;;;;;;;;;;;;;;;4983337;28;20297;-68
2021/09/01 06:48:40;;;;;;;;;;;;;;;;;;4974774;28;19945;-67
2021/09/01 06:51:07;;;;;;;;;;;;;;;;;;4980571;28;19933;-67
2021/09/01 06:53:34;;;;;;;;;;;;;;;;;;4988917;28;19932;-67
2021/09/01 06:56:01;;;;;;;;;;;;;;;;;;4991741;28;19981;-67
2021/09/01 06:58:28;;;;;;;;;;;;;;;;;;4992650;28;20279;-67
2021/09/01 07:00:55;;;;;;;;;;;;;;;;;;4993055;28;20029;-67
2021/09/01 07:03:22;;;;;;;;;;;;;;;;;;4993033;28;20230;-66
2021/09/01 07:05:49;;;;;;;;;;;;;;;;;;4993066;28;19926;-67
2021/09/01 07:08:16;;;;;;;;;;;;;;;;;;4993384;28;19933;-67
2021/09/01 07:10:43;;;;;;;;;;;;;;;;;;4992445;28;20371;-67
2021/09/01 07:13:10;;;;;;;;;;;;;;;;;;4992725;28;20309;-67
2021/09/01 07:15:37;;;;;;;;;;;;;;;;;;4991197;28;20028;-68
2021/09/01 07:18:04;;;;;;;;;;;;;;;;;;4992730;28;19948;-67
2021/09/01 07:20:31;;;;;;;;;;;;;;;;;;4988452;28;19926;-66
2021/09/01 07:22:58;;;;;;;;;;;;;;;;;;4990745;28;19926;-68
2021/09/01 07:25:25;;;;;;;;;;;;;;;;;;4990520;28;19926;-68
2021/09/01 07:27:53;;;;;;;;;;;;;;;;;;4992427;28;20489;-68
2021/09/01 07:30:20;;;;;;;;;;;;;;;;;;4991335;28;20362;-68
2021/09/01 07:32:47;;;;;;;;;;;;;;;;;;4985935;28;19933;-68
2021/09/01 07:35:14;;;;;;;;;;;;;;;;;;4982976;28;19926;-66
2021/09/01 07:37:41;;;;;;;;;;;;;;;;;;4992589;28;20386;-68
2021/09/01 07:40:08;;;;;;;;;;;;;;;;;;4992047;28;19926;-68
2021/09/01 07:42:35;;;;;;;;;;;;;;;;;;4983507;28;19929;-68
2021/09/01 07:45:02;;;;;;;;;;;;;;;;;;4989877;28;20394;-68
2021/09/01 07:47:29;;;;;;;;;;;;;;;;;;4990189;28;20291;-68
2021/09/01 07:49:56;;;;;;;;;;;;;;;;;;4987761;28;19932;-68
2021/09/01 07:52:23;;;;;;;;;;;;;;;;;;4987162;28;19926;-68
2021/09/01 07:54:50;;;;;;;;;;;;;;;;;;4989325;28;19930;-68
2021/09/01 07:57:17;;;;;;;;;;;;;;;;;;4987104;28;19925;-66
2021/09/01 07:59:44;;;;;;;;;;;;;;;;;;4988961;28;19965;-68
2021/09/01 08:02:11;;;;;;;;;;;;;;;;;;4988711;28;19932;-67
2021/09/01 08:04:38;;;;;;;;;;;;;;;;;;4990432;28;20432;-69
2021/09/01 08:07:05;;;;;;;;;;;;;;;;;;4986919;28;19934;-68
2021/09/01 08:09:32;;;;;;;;;;;;;;;;;;4985822;28;19925;-69
2021/09/01 08:11:59;;;;;;;;;;;;;;;;;;4983086;28;19969;-68
2021/09/01 08:14:26;;;;;;;;;;;;;;;;;;4992567;28;20382;-67
2021/09/01 08:16:53;;;;;;;;;;;;;;;;;;4987676;28;19925;-67
2021/09/01 08:19:20;;;;;;;;;;;;;;;;;;4991781;28;20424;-69
2021/09/01 08:21:47;;;;;;;;;;;;;;;;;;4991686;28;20355;-68
2021/09/01 08:24:14;;;;;;;;;;;;;;;;;;4991854;28;19932;-68
2021/09/01 08:26:41;;;;;;;;;;;;;;;;;;4991995;28;19932;-68
2021/09/01 08:29:08;;;;;;;;;;;;;;;;;;4990656;28;20338;-68
2021/09/01 08:31:35;;;;;;;;;;;;;;;;;;4992069;28;19932;-67
2021/09/01 08:34:02;;;;;;;;;;;;;;;;;;4991124;28;19933;-68
2021/09/01 08:36:29;;;;;;;;;;;;;;;;;;4985918;28;19930;-68
2021/09/01 08:38:56;;;;;;;;;;;;;;;;;;4980485;28;19933;-68
2021/09/01 08:41:23;;;;;;;;;;;;;;;;;;4990489;28;19969;-68
2021/09/01 08:43:50;;;;;;;;;;;;;;;;;;4988214;28;19952;-66
2021/09/01 08:46:17;;;;;;;;;;;;;;;;;;4987940;28;19925;-68
2021/09/01 08:48:44;;;;;;;;;;;;;;;;;;4987610;28;19941;-68
2021/09/01 08:51:11;;;;;;;;;;;;;;;;;;4986737;28;20321;-68
2021/09/01 08:53:38;;;;;;;;;;;;;;;;;;4989838;28;19935;-68
2021/09/01 08:56:05;;;;;;;;;;;;;;;;;;4990015;28;19926;-67
2021/09/01 08:58:32;;;;;;;;;;;;;;;;;;4989160;28;19979;-67
2021/09/01 09:00:59;;;;;;;;;;;;;;;;;;4989060;28;19933;-66
2021/09/01 09:03:28;;;;;;;;;;;;;;;;;;4982232;28;20371;-67
2021/09/01 09:05:55;;;;;;;;;;;;;;;;;;4984300;28;19957;-67
2021/09/01 09:08:22;;;;;;;;;;;;;;;;;;4986735;28;20024;-67
2021/09/01 09:10:49;;;;;;;;;;;;;;;;;;4987447;28;20009;-68
2021/09/01 09:13:16;;;;;;;;;;;;;;;;;;4981571;28;19926;-68
2021/09/01 09:15:43;;;;;;;;;;;;;;;;;;4986917;28;19927;-68
2021/09/01 09:18:10;;;;;;;;;;;;;;;;;;4987930;28;20013;-68
2021/09/01 09:20:37;;;;;;;;;;;;;;;;;;4988704;28;19926;-68
2021/09/01 09:23:05;;;;;;;;;;;;;;;;;;4985505;28;19930;-68
2021/09/01 09:25:32;;;;;;;;;;;;;;;;;;4987675;28;19926;-67
2021/09/01 09:27:59;;;;;;;;;;;;;;;;;;4987487;28;19926;-68
2021/09/01 09:30:26;;;;;;;;;;;;;;;;;;4989844;28;20061;-68
2021/09/01 09:32:53;;;;;;;;;;;;;;;;;;4988927;28;19926;-68
2021/09/01 09:35:20;;;;;;;;;;;;;;;;;;4989669;28;19926;-69
2021/09/01 09:37:47;;;;;;;;;;;;;;;;;;4990100;28;19933;-68
2021/09/01 09:40:15;;;;;;;;;;;;;;;;;;4990609;28;20008;-67
2021/09/01 09:42:42;;;;;;;;;;;;;;;;;;5015048;23;19936;-69
2021/09/01 09:45:09;;;;;;;;;;;;;;;;;;5026544;28;19925;-69
2021/09/01 09:47:36;;;;;;;;;;;;;;;;;;5026477;28;19948;-70
2021/09/01 09:50:03;;;;;;;;;;;;;;;;;;5024528;28;19926;-69
2021/09/01 09:52:30;;;;;;;;;;;;;;;;;;5021223;28;19926;-70
2021/09/01 09:54:57;;;;;;;;;;;;;;;;;;5008856;28;19925;-69
2021/09/01 09:57:24;;;;;;;;;;;;;;;;;;5009995;28;19932;-69
2021/09/01 09:59:51;;;;;;;;;;;;;;;;;;5009106;28;19925;-70
2021/09/01 10:02:17;;;;;;;;;;;;;;;;;;5009771;28;19932;-69
2021/09/01 10:04:44;;;;;;;;;;;;;;;;;;5010118;28;19926;-69
2021/09/01 10:07:11;;;;;;;;;;;;;;;;;;5011356;28;19933;-69
2021/09/01 10:09:38;;;;;;;;;;;;;;;;;;5008984;28;19963;-69
2021/09/01 10:12:05;;;;;;;;;;;;;;;;;;5005649;28;20293;-70
2021/09/01 10:14:32;;;;;;;;;;;;;;;;;;5008688;28;19933;-69
2021/09/01 10:16:59;;;;;;;;;;;;;;;;;;5007756;28;19926;-70
2021/09/01 10:19:26;;;;;;;;;;;;;;;;;;5010777;28;19948;-69
2021/09/01 10:21:53;;;;;;;;;;;;;;;;;;5006272;28;20336;-70
2021/09/01 10:24:20;;;;;;;;;;;;;;;;;;5008353;28;19929;-69
2021/09/01 10:26:47;;;;;;;;;;;;;;;;;;5007552;28;20309;-69
2021/09/01 10:29:14;;;;;;;;;;;;;;;;;;5009289;28;20389;-69
2021/09/01 10:31:41;;;;;;;;;;;;;;;;;;5010337;28;19929;-69
2021/09/01 10:34:08;;;;;;;;;;;;;;;;;;5009052;28;20537;-69
2021/09/01 10:36:35;;;;;;;;;;;;;;;;;;5012844;28;19929;-69
2021/09/01 10:39:02;;;;;;;;;;;;;;;;;;5010730;28;19925;-70
2021/09/01 10:41:29;;;;;;;;;;;;;;;;;;5009223;28;19931;-69
2021/09/01 10:43:56;;;;;;;;;;;;;;;;;;5011379;28;19926;-69
2021/09/01 10:46:23;;;;;;;;;;;;;;;;;;5010632;28;19940;-69
2021/09/01 10:48:50;;;;;;;;;;;;;;;;;;5008377;28;19925;-69
2021/09/01 10:51:17;;;;;;;;;;;;;;;;;;5008799;28;19929;-69
2021/09/01 10:53:43;;;;;;;;;;;;;;;;;;5011091;28;19933;-69
2021/09/01 10:56:11;;;;;;;;;;;;;;;;;;5008807;28;19931;-69
2021/09/01 10:58:38;;;;;;;;;;;;;;;;;;5005461;28;19932;-69
2021/09/01 11:01:05;;;;;;;;;;;;;;;;;;5006527;28;19955;-68
2021/09/01 11:03:32;;;;;;;;;;;;;;;;;;5006929;28;19976;-69
2021/09/01 11:05:59;;;;;;;;;;;;;;;;;;5007135;28;20431;-70
2021/09/01 11:08:26;;;;;;;;;;;;;;;;;;5008589;28;20365;-69
2021/09/01 11:10:52;;;;;;;;;;;;;;;;;;5004906;28;20424;-72
2021/09/01 11:13:19;;;;;;;;;;;;;;;;;;5008393;28;19934;-68
2021/09/01 11:15:47;;;;;;;;;;;;;;;;;;5011037;28;19929;-68
2021/09/01 11:18:14;;;;;;;;;;;;;;;;;;5009940;28;19933;-69
2021/09/01 11:20:41;;;;;;;;;;;;;;;;;;5007587;28;19929;-69
2021/09/01 11:23:08;;;;;;;;;;;;;;;;;;5004172;28;19925;-69
2021/09/01 11:25:35;;;;;;;;;;;;;;;;;;5005878;28;19926;-69
2021/09/01 11:28:02;;;;;;;;;;;;;;;;;;5008994;28;19929;-69
2021/09/01 11:30:29;;;;;;;;;;;;;;;;;;5008614;28;19925;-68
2021/09/01 11:32:56;;;;;;;;;;;;;;;;;;5005006;28;19945;-70
2021/09/01 11:35:27;;;;;;;;;;;;;;;;;;5008268;28;19926;-69
2021/09/01 11:37:53;;;;;;;;;;;;;;;;;;5004017;28;19929;-69
2021/09/01 11:40:20;;;;;;;;;;;;;;;;;;5007675;28;19925;-69
2021/09/01 11:42:47;;;;;;;;;;;;;;;;;;5010524;28;19926;-69
2021/09/01 11:45:14;;;;;;;;;;;;;;;;;;5008437;28;19926;-68
2021/09/01 11:47:42;;;;;;;;;;;;;;;;;;5008186;28;19949;-68
2021/09/01 11:50:09;;;;;;;;;;;;;;;;;;5006898;28;19930;-68
2021/09/01 11:52:36;;;;;;;;;;;;;;;;;;5007444;28;19925;-69
2021/09/01 11:55:03;;;;;;;;;;;;;;;;;;5007191;28;19933;-69
2021/09/01 11:57:30;;;;;;;;;;;;;;;;;;5008569;28;19957;-70
2021/09/01 11:59:57;;;;;;;;;;;;;;;;;;5005607;28;20403;-69
2021/09/01 12:02:24;;;;;;;;;;;;;;;;;;5008551;28;19936;-68
2021/09/01 12:04:51;;;;;;;;;;;;;;;;;;5005598;28;19926;-69
2021/09/01 12:07:18;;;;;;;;;;;;;;;;;;5011125;28;19925;-71
2021/09/01 12:09:45;;;;;;;;;;;;;;;;;;5009379;28;19925;-69
2021/09/01 12:12:12;;;;;;;;;;;;;;;;;;5008008;28;19933;-68
2021/09/01 12:14:38;;;;;;;;;;;;;;;;;;5008437;28;19989;-69
2021/09/01 12:17:05;;;;;;;;;;;;;;;;;;5001927;28;20374;-69
2021/09/01 12:19:32;;;;;;;;;;;;;;;;;;5005206;28;19931;-70
2021/09/01 12:22:00;;;;;;;;;;;;;;;;;;5002570;28;19925;-69
2021/09/01 12:24:27;;;;;;;;;;;;;;;;;;5005201;28;20017;-68
2021/09/01 12:26:54;;;;;;;;;;;;;;;;;;5006856;28;20305;-68
2021/09/01 12:29:21;;;;;;;;;;;;;;;;;;5008191;28;20015;-69
2021/09/01 12:31:48;;;;;;;;;;;;;;;;;;5005059;28;19925;-69
2021/09/01 12:34:15;;;;;;;;;;;;;;;;;;5007526;28;19925;-69
2021/09/01 12:36:42;;;;;;;;;;;;;;;;;;5006774;28;19936;-69
2021/09/01 12:39:09;;;;;;;;;;;;;;;;;;5002247;28;19951;-69
2021/09/01 12:41:36;;;;;;;;;;;;;;;;;;5007633;28;19926;-69
2021/09/01 12:44:03;;;;;;;;;;;;;;;;;;5004859;28;19926;-70
2021/09/01 12:46:29;;;;;;;;;;;;;;;;;;5008049;28;19925;-69
2021/09/01 12:48:56;;;;;;;;;;;;;;;;;;5007218;28;19936;-71
2021/09/01 12:51:23;;;;;;;;;;;;;;;;;;5014216;28;19943;-69
2021/09/01 12:53:51;;;;;;;;;;;;;;;;;;5009631;28;19929;-68
2021/09/01 12:56:18;;;;;;;;;;;;;;;;;;5011436;28;20003;-69
2021/09/01 12:58:45;;;;;;;;;;;;;;;;;;5007320;28;19926;-70
2021/09/01 13:01:12;;;;;;;;;;;;;;;;;;5008261;28;19932;-69
2021/09/01 13:03:39;;;;;;;;;;;;;;;;;;5009076;28;19932;-69
2021/09/01 13:06:06;;;;;;;;;;;;;;;;;;5012938;28;19929;-70
2021/09/01 13:08:33;;;;;;;;;;;;;;;;;;5015335;28;19925;-69
2021/09/01 13:11:00;;;;;;;;;;;;;;;;;;5007430;28;19936;-69
2021/09/01 13:13:27;;;;;;;;;;;;;;;;;;5012009;28;19932;-69
2021/09/01 13:15:54;;;;;;;;;;;;;;;;;;5010128;28;19937;-70
2021/09/01 13:18:21;;;;;;;;;;;;;;;;;;5010386;28;19977;-70
2021/09/01 13:20:53;;;;;;;;;;;;;;;;;;5009707;28;19925;-69
2021/09/01 13:23:21;;;;;;;;;;;;;;;;;;5008613;28;20128;-68
2021/09/01 13:25:48;;;;;;;;;;;;;;;;;;5009671;28;19976;-68
2021/09/01 13:28:15;;;;;;;;;;;;;;;;;;5008640;28;19936;-68
2021/09/01 13:30:42;;;;;;;;;;;;;;;;;;5006652;28;19936;-68
2021/09/01 13:33:08;;;;;;;;;;;;;;;;;;5005343;28;20020;-69
2021/09/01 13:35:35;;;;;;;;;;;;;;;;;;5007945;28;19930;-68
2021/09/01 13:38:02;;;;;;;;;;;;;;;;;;5009347;28;20309;-68
2021/09/01 13:40:29;;;;;;;;;;;;;;;;;;5006755;28;20377;-68
2021/09/01 13:42:56;;;;;;;;;;;;;;;;;;5010363;28;20404;-70
2021/09/01 13:45:23;;;;;;;;;;;;;;;;;;5009704;28;20401;-69
2021/09/01 13:47:50;;;;;;;;;;;;;;;;;;5011706;28;19933;-68
2021/09/01 13:50:17;;;;;;;;;;;;;;;;;;5008935;28;19930;-70
2021/09/01 13:52:44;;;;;;;;;;;;;;;;;;5008401;28;19932;-68
2021/09/01 13:55:11;;;;;;;;;;;;;;;;;;5008428;28;19999;-67
2021/09/01 13:57:39;;;;;;;;;;;;;;;;;;5009067;28;20312;-69
2021/09/01 14:00:07;;;;;;;;;;;;;;;;;;5009253;28;20366;-68
2021/09/01 14:02:34;;;;;;;;;;;;;;;;;;5010410;28;19976;-69
2021/09/01 14:05:01;;;;;;;;;;;;;;;;;;5015407;28;20282;-68
2021/09/01 14:07:28;;;;;;;;;;;;;;;;;;5012767;28;20393;-68
2021/09/01 14:09:55;;;;;;;;;;;;;;;;;;5011230;28;19929;-70
2021/09/01 14:12:22;;;;;;;;;;;;;;;;;;5006506;28;19929;-71
2021/09/01 14:14:49;;;;;;;;;;;;;;;;;;5008761;28;19925;-70
2021/09/01 14:17:16;;;;;;;;;;;;;;;;;;5012655;28;20201;-68
2021/09/01 14:19:42;;;;;;;;;;;;;;;;;;5008588;28;19936;-69
2021/09/01 14:22:09;;;;;;;;;;;;;;;;;;5007593;28;20329;-69
2021/09/01 14:24:36;;;;;;;;;;;;;;;;;;5010346;28;20397;-69
2021/09/01 14:27:03;;;;;;;;;;;;;;;;;;5006468;28;20004;-68
2021/09/01 14:29:30;;;;;;;;;;;;;;;;;;5007199;28;20366;-68
2021/09/01 14:31:57;;;;;;;;;;;;;;;;;;5005747;28;20366;-69
2021/09/01 14:34:24;;;;;;;;;;;;;;;;;;5007113;28;19929;-70
2021/09/01 14:36:51;;;;;;;;;;;;;;;;;;5006406;28;20312;-69
2021/09/01 14:39:18;;;;;;;;;;;;;;;;;;5006877;28;20340;-67
2021/09/01 14:41:45;;;;;;;;;;;;;;;;;;5004605;28;19930;-70
2021/09/01 14:44:12;;;;;;;;;;;;;;;;;;5008698;28;19933;-67
2021/09/01 14:46:39;;;;;;;;;;;;;;;;;;5005864;28;19932;-67
2021/09/01 14:49:06;;;;;;;;;;;;;;;;;;5009732;28;19933;-68
2021/09/01 14:51:33;;;;;;;;;;;;;;;;;;5003463;28;19926;-69
2021/09/01 14:54:00;;;;;;;;;;;;;;;;;;5007112;28;19934;-68
2021/09/01 14:56:27;;;;;;;;;;;;;;;;;;5010858;28;19925;-68
2021/09/01 14:58:53;;;;;;;;;;;;;;;;;;5006682;28;19930;-69
2021/09/01 15:01:20;;;;;;;;;;;;;;;;;;5009005;28;19933;-69
2021/09/01 15:03:47;;;;;;;;;;;;;;;;;;5005113;28;19931;-69
2021/09/01 15:06:14;;;;;;;;;;;;;;;;;;5006491;28;20301;-67
2021/09/01 15:08:43;;;;;;;;;;;;;;;;;;5010896;28;20420;-68
2021/09/01 15:11:10;;;;;;;;;;;;;;;;;;5003374;28;20364;-68
2021/09/01 15:13:38;;;;;;;;;;;;;;;;;;5011586;28;19929;-67
2021/09/01 15:16:05;;;;;;;;;;;;;;;;;;5010417;28;19925;-68
2021/09/01 15:18:32;;;;;;;;;;;;;;;;;;5009717;28;19925;-68
2021/09/01 15:20:59;;;;;;;;;;;;;;;;;;5006323;28;19925;-68
2021/09/01 15:23:27;;;;;;;;;;;;;;;;;;5007557;28;20004;-69
2021/09/01 15:25:54;;;;;;;;;;;;;;;;;;5005811;28;19975;-68
2021/09/01 15:28:21;;;;;;;;;;;;;;;;;;5006859;28;19936;-69
2021/09/01 15:30:50;;;;;;;;;;;;;;;;;;5006785;28;19925;-69
2021/09/01 15:33:17;;;;;;;;;;;;;;;;;;5005827;28;19968;-69
2021/09/01 15:35:44;;;;;;;;;;;;;;;;;;5003555;28;19929;-68
2021/09/01 15:38:11;;;;;;;;;;;;;;;;;;5012310;28;20405;-68
2021/09/01 15:40:37;;;;;;;;;;;;;;;;;;5012574;28;19925;-67
2021/09/01 15:43:04;;;;;;;;;;;;;;;;;;5022815;22;20008;-68
2021/09/01 15:45:31;;;;;;;;;;;;;;;;;;5005048;28;20024;-66
2021/09/01 15:47:58;;;;;;;;;;;;;;;;;;5008488;28;19926;-67
2021/09/01 15:50:25;;;;;;;;;;;;;;;;;;5007987;28;19929;-67
2021/09/01 15:52:52;;;;;;;;;;;;;;;;;;5007523;28;19988;-68
2021/09/01 15:55:19;;;;;;;;;;;;;;;;;;5008070;28;19952;-67
2021/09/01 15:57:46;;;;;;;;;;;;;;;;;;5007331;28;19925;-67
2021/09/01 16:00:13;;;;;;;;;;;;;;;;;;5002815;28;19980;-68
2021/09/01 16:02:40;;;;;;;;;;;;;;;;;;5005438;28;19926;-68
2021/09/01 16:05:07;;;;;;;;;;;;;;;;;;5008363;28;19929;-69
2021/09/01 16:07:34;;;;;;;;;;;;;;;;;;5006192;28;19959;-67
2021/09/01 16:10:01;;;;;;;;;;;;;;;;;;5003744;28;19929;-68
2021/09/01 16:12:28;;;;;;;;;;;;;;;;;;5001384;28;20400;-67
2021/09/01 16:14:55;;;;;;;;;;;;;;;;;;5004962;28;19926;-67
2021/09/01 16:17:22;;;;;;;;;;;;;;;;;;5005281;28;19930;-67
2021/09/01 16:19:49;;;;;;;;;;;;;;;;;;5005186;28;20304;-67
2021/09/01 16:22:16;;;;;;;;;;;;;;;;;;5007571;28;20013;-66
2021/09/01 16:24:43;;;;;;;;;;;;;;;;;;5003914;28;19945;-66
2021/09/01 16:27:10;;;;;;;;;;;;;;;;;;5003440;28;19941;-67
2021/09/01 16:29:37;;;;;;;;;;;;;;;;;;5004648;28;19926;-66
2021/09/01 16:32:04;;;;;;;;;;;;;;;;;;5004725;28;19964;-68
2021/09/01 16:34:31;;;;;;;;;;;;;;;;;;5005998;28;20383;-67
2021/09/01 16:36:58;;;;;;;;;;;;;;;;;;5004618;28;19936;-69
2021/09/01 16:39:25;;;;;;;;;;;;;;;;;;5006884;28;19925;-68
2021/09/01 16:41:54;;;;;;;;;;;;;;;;;;5006273;28;19926;-68
2021/09/01 16:44:21;;;;;;;;;;;;;;;;;;5008065;28;19972;-67
2021/09/01 16:46:48;;;;;;;;;;;;;;;;;;5005647;28;19933;-67
2021/09/01 16:49:17;;;;;;;;;;;;;;;;;;5008186;28;19988;-68
2021/09/01 16:51:44;;;;;;;;;;;;;;;;;;4998947;28;19925;-68
2021/09/01 16:54:11;;;;;;;;;;;;;;;;;;5004937;28;20132;-68
2021/09/01 16:56:38;;;;;;;;;;;;;;;;;;5005573;28;19926;-67
2021/09/01 16:59:05;;;;;;;;;;;;;;;;;;5003011;28;19948;-69
2021/09/01 17:01:31;;;;;;;;;;;;;;;;;;5001579;28;19929;-66
2021/09/01 17:03:58;;;;;;;;;;;;;;;;;;5009564;28;20199;-67
2021/09/01 17:06:26;;;;;;;;;;;;;;;;;;5001835;28;20282;-67
2021/09/01 17:08:52;;;;;;;;;;;;;;;;;;5004119;28;19937;-67
2021/09/01 17:11:19;;;;;;;;;;;;;;;;;;5006709;28;19940;-67
2021/09/01 17:13:46;;;;;;;;;;;;;;;;;;5006600;28;19926;-67
2021/09/01 17:16:13;;;;;;;;;;;;;;;;;;5000367;28;19968;-68
2021/09/01 17:18:40;;;;;;;;;;;;;;;;;;5005023;28;19926;-66
2021/09/01 17:21:07;;;;;;;;;;;;;;;;;;5001673;28;19964;-67
2021/09/01 17:23:35;;;;;;;;;;;;;;;;;;5005168;28;20400;-67
2021/09/01 17:26:02;;;;;;;;;;;;;;;;;;5003661;28;19929;-68
2021/09/01 17:28:29;;;;;;;;;;;;;;;;;;5006405;28;20144;-68
2021/09/01 17:30:56;;;;;;;;;;;;;;;;;;5005352;28;19932;-65
2021/09/01 17:33:22;;;;;;;;;;;;;;;;;;5007497;28;20377;-66
2021/09/01 17:35:49;;;;;;;;;;;;;;;;;;5006638;28;19925;-65
2021/09/01 17:38:16;;;;;;;;;;;;;;;;;;5012049;28;19932;-68
2021/09/01 17:40:44;;;;;;;;;;;;;;;;;;5005620;28;20656;-67
2021/09/01 17:43:11;;;;;;;;;;;;;;;;;;5010158;28;19930;-67